Agana Heights, GU (96910)

5:53 AM ChST on July 24, 2016 (GMT +1000)
Maite | | Change Station

Elev 140 ft 13.48 °N, 144.76 °E | Updated 6 seconds ago

Partly Cloudy
Partly Cloudy
79.8 °F
Feels Like 85 °F
N
2.0
Wind Variable Wind from SE
Gusts 5.0 mph

Today
High -- | Low -- °F
--% Chance of Precip.
Yesterday
High -- | Low -- °F
Precip. -- in
Pressure 29.79 in
Visibility 10.0 miles
Clouds Few 2400 ft
Heat Index 85 °F
Dew Point 76 °F
Humidity 89%
Rainfall 0.00 in
Snow Depth Not available.
6:04 AM 6:50 PM
Waning Gibbous, 83% visible
METAR PGUM 231854Z 06005KT 10SM FEW024 27/24 A2981 RMK AO2 SLP086 T02720239
Pressure 29.79 in
Visibility 10.0 miles
Clouds Few 2400 ft
Heat Index 85 °F
Dew Point 76 °F
Humidity 89%
Rainfall 0.00 in
Snow Depth Not available.
6:04 AM 6:50 PM
Waning Gibbous, 83% visible
METAR PGUM 231854Z 06005KT 10SM FEW024 27/24 A2981 RMK AO2 SLP086 T02720239

10-Day Weather Forecast

Almanac

Astronomy

Jul. 24, 2016 Rise Set
Actual Time
Civil Twilight
Nautical Twilight
Astronomical Twilight
Moon
Length of Visible Light
Length of Day
Tomorrow will be .
, % of the Moon is Illuminated

Today's Extremes

State Highs State Lows

Community

WunderPhotos

Upload Photos

1,926,909 photos uploaded!

WunderBlog® & News

Nearby

Air Quality

  Air Quality AQ Index Pollutant
Not available.

Snow Depth

Station Depth Elevation

Earthquake Activity

City Distance Mag. Time & Date
Minimum magnitude displayed is 2.5.

Coastal Water Temperatures

Place Temperature

Stations

Nearby Weather Stations

Station Location Temp. Windchill Dew Point Humidity Wind Precip. Elev Updated Type
                   

Watches & Warnings

There are currently no watches in effect.